createdAt,value
2023-05-04T00:02:13.098Z,4.35
2023-05-04T00:04:43.539Z,4.88
2023-05-04T00:07:12.289Z,3.88
2023-05-04T00:09:40.513Z,4.28
2023-05-04T00:12:09.108Z,4.28
2023-05-04T00:14:37.570Z,4.55
2023-05-04T00:17:07.829Z,3.92
2023-05-04T00:19:36.318Z,3.78
2023-05-04T00:22:06.287Z,4.00
2023-05-04T00:24:34.728Z,3.83
2023-05-04T00:27:03.835Z,3.10
2023-05-04T00:29:32.318Z,3.70
2023-05-04T00:32:01.558Z,3.00
2023-05-04T00:34:30.449Z,3.05
2023-05-04T00:36:58.890Z,3.65
2023-05-04T00:39:29.624Z,3.28
2023-05-04T00:41:58.210Z,3.38
2023-05-04T00:44:26.441Z,2.90
2023-05-04T00:46:55.149Z,2.97
2023-05-04T00:49:23.988Z,3.85
2023-05-04T00:51:54.668Z,3.67
2023-05-04T00:54:22.940Z,3.05
2023-05-04T00:56:53.233Z,3.30
2023-05-04T00:59:25.963Z,3.28
2023-05-04T01:01:54.584Z,3.30
2023-05-04T01:04:22.975Z,3.40
2023-05-04T01:06:59.341Z,3.35
2023-05-04T01:09:35.406Z,3.22
2023-05-04T01:12:08.259Z,3.45
2023-05-04T01:14:37.586Z,3.17
2023-05-04T01:17:07.709Z,3.30
2023-05-04T01:19:36.450Z,3.30
2023-05-04T01:22:06.319Z,2.60
2023-05-04T01:24:34.937Z,2.88
2023-05-04T01:27:06.716Z,3.33
2023-05-04T01:29:42.253Z,3.47
2023-05-04T01:32:12.713Z,2.95
2023-05-04T01:34:42.004Z,3.17
2023-05-04T01:37:11.937Z,3.38
2023-05-04T01:39:40.301Z,2.88
2023-05-04T01:42:08.851Z,2.65
2023-05-04T01:44:37.367Z,3.13
2023-05-04T01:47:06.006Z,3.38
2023-05-04T01:49:34.268Z,3.38
2023-05-04T01:52:02.771Z,2.92
2023-05-04T01:54:32.429Z,2.53
2023-05-04T01:57:01.714Z,3.35
2023-05-04T01:59:30.365Z,3.28
2023-05-04T02:01:59.078Z,2.75
2023-05-04T02:04:27.376Z,3.15
2023-05-04T02:06:55.884Z,3.33
2023-05-04T02:09:24.061Z,2.80
2023-05-04T02:11:54.241Z,2.88
2023-05-04T02:14:22.570Z,2.83
2023-05-04T02:16:51.191Z,2.83
2023-05-04T02:19:19.614Z,2.95
2023-05-04T02:21:48.707Z,3.42
2023-05-04T02:24:17.013Z,3.80
2023-05-04T02:26:45.539Z,3.38
2023-05-04T02:29:15.277Z,2.95
2023-05-04T02:31:43.876Z,3.10
2023-05-04T02:34:12.121Z,2.75
2023-05-04T02:36:40.652Z,3.17
2023-05-04T02:39:09.132Z,3.58
2023-05-04T02:41:37.962Z,2.70
2023-05-04T02:44:06.547Z,3.20
2023-05-04T02:46:36.449Z,3.58
2023-05-04T02:49:04.774Z,3.17
2023-05-04T02:51:33.421Z,2.95
2023-05-04T02:54:01.641Z,3.00
2023-05-04T02:56:30.289Z,3.05
2023-05-04T02:58:58.761Z,3.95
2023-05-04T03:01:27.436Z,3.40
2023-05-04T03:03:57.248Z,2.92
2023-05-04T03:06:26.086Z,3.42
2023-05-04T03:08:54.372Z,3.67
2023-05-04T03:11:23.211Z,4.15
2023-05-04T03:13:52.556Z,4.00
2023-05-04T03:16:22.631Z,4.18
2023-05-04T03:18:50.878Z,4.45
2023-05-04T03:21:21.392Z,4.18
2023-05-04T03:23:49.924Z,5.72
2023-05-04T03:26:18.426Z,6.35
2023-05-04T03:28:46.729Z,6.07
2023-05-04T03:31:15.332Z,7.00
2023-05-04T03:33:43.627Z,6.97
2023-05-04T03:36:12.080Z,6.18
2023-05-04T03:38:42.250Z,7.40
2023-05-04T03:41:11.242Z,7.40
2023-05-04T03:43:39.864Z,7.55
2023-05-04T03:46:08.657Z,6.65
2023-05-04T03:48:36.982Z,6.78
2023-05-04T03:51:06.443Z,7.03
2023-05-04T03:53:35.848Z,6.35
2023-05-04T03:56:06.251Z,6.88
2023-05-04T03:58:34.770Z,6.32
2023-05-04T04:01:04.402Z,5.47
2023-05-04T04:03:33.186Z,6.13
2023-05-04T04:06:03.518Z,5.35
2023-05-04T04:08:31.797Z,5.63
2023-05-04T04:11:00.446Z,5.35
2023-05-04T04:13:30.284Z,5.20
2023-05-04T04:15:58.809Z,4.93
2023-05-04T04:18:27.368Z,4.55
2023-05-04T04:20:56.155Z,4.85
2023-05-04T04:23:24.381Z,4.50
2023-05-04T04:25:54.079Z,5.18
2023-05-04T04:28:22.937Z,3.45
2023-05-04T04:30:53.129Z,4.43
2023-05-04T04:33:21.990Z,4.25
2023-05-04T04:35:50.706Z,4.35
2023-05-04T04:38:19.008Z,4.50
2023-05-04T04:40:47.879Z,4.13
2023-05-04T04:43:16.438Z,3.92
2023-05-04T04:45:45.334Z,4.28
2023-05-04T04:48:15.293Z,4.47
2023-05-04T04:50:43.905Z,4.15
2023-05-04T04:53:12.126Z,4.55
2023-05-04T04:55:41.087Z,3.03
2023-05-04T04:58:09.646Z,3.22
2023-05-04T05:00:38.136Z,3.85
2023-05-04T05:03:06.434Z,3.60
2023-05-04T05:05:37.014Z,4.00
2023-05-04T05:08:05.732Z,3.47
2023-05-04T05:10:34.329Z,3.85
2023-05-04T05:13:02.775Z,3.92
2023-05-04T05:15:31.644Z,3.40
2023-05-04T05:18:00.144Z,3.97
2023-05-04T05:20:29.370Z,3.95
2023-05-04T05:22:59.330Z,3.92
2023-05-04T05:25:28.041Z,3.63
2023-05-04T05:27:56.631Z,3.65
2023-05-04T05:30:28.459Z,3.63
2023-05-04T05:32:57.082Z,3.85
2023-05-04T05:35:25.781Z,2.80
2023-05-04T05:37:54.185Z,2.90
2023-05-04T05:40:24.349Z,3.58
2023-05-04T05:42:52.717Z,3.25
2023-05-04T05:45:21.398Z,3.92
2023-05-04T05:47:50.003Z,3.30
2023-05-04T05:50:19.792Z,3.78
2023-05-04T05:52:48.133Z,4.18
2023-05-04T05:55:16.914Z,3.47
2023-05-04T05:57:46.597Z,3.70
2023-05-04T06:00:16.285Z,4.32
2023-05-04T06:02:44.816Z,3.67
2023-05-04T06:05:13.454Z,3.47
2023-05-04T06:07:41.860Z,3.05
2023-05-04T06:10:10.863Z,3.42
2023-05-04T06:12:39.436Z,3.75
2023-05-04T06:15:10.709Z,3.13
2023-05-04T06:17:39.223Z,3.55
2023-05-04T06:20:09.235Z,3.58
2023-05-04T06:22:37.756Z,3.08
2023-05-04T06:25:08.164Z,4.05
2023-05-04T06:27:37.020Z,3.38
2023-05-04T06:30:06.978Z,3.50
2023-05-04T06:32:37.080Z,3.75
2023-05-04T06:35:06.479Z,4.00
2023-05-04T06:37:34.746Z,3.67
2023-05-04T06:40:04.141Z,3.55
2023-05-04T06:42:32.491Z,3.90
2023-05-04T06:45:01.025Z,3.20
2023-05-04T06:47:29.461Z,3.60
2023-05-04T06:49:59.317Z,3.38
2023-05-04T06:52:29.751Z,3.58
2023-05-04T06:55:00.069Z,3.50
2023-05-04T06:57:30.167Z,3.28
2023-05-04T06:59:59.064Z,3.65
2023-05-04T07:02:27.407Z,3.70
2023-05-04T07:04:57.119Z,4.18
2023-05-04T07:07:27.242Z,3.35
2023-05-04T07:09:55.697Z,3.70
2023-05-04T07:12:24.125Z,3.70
2023-05-04T07:14:52.727Z,2.90
2023-05-04T07:17:22.165Z,3.72
2023-05-04T07:19:52.435Z,4.03
2023-05-04T07:22:21.675Z,3.40
2023-05-04T07:24:51.558Z,3.17
2023-05-04T07:27:19.869Z,3.67
2023-05-04T07:29:48.416Z,3.38
2023-05-04T07:32:16.772Z,2.88
2023-05-04T07:34:46.688Z,3.35
2023-05-04T07:37:16.502Z,3.17
2023-05-04T07:39:45.092Z,2.80
2023-05-04T07:42:14.976Z,3.72
2023-05-04T07:44:43.791Z,2.72
2023-05-04T07:47:12.387Z,2.58
2023-05-04T07:49:41.220Z,3.15
2023-05-04T07:52:09.388Z,2.80
2023-05-04T07:54:38.407Z,2.65
2023-05-04T07:57:06.633Z,2.30
2023-05-04T07:59:36.652Z,2.60
2023-05-04T08:02:05.275Z,2.60
2023-05-04T08:04:33.993Z,2.88
2023-05-04T08:07:02.340Z,2.20
2023-05-04T08:09:30.911Z,1.77
2023-05-04T08:11:59.146Z,1.98
2023-05-04T08:14:27.688Z,1.85
2023-05-04T08:16:57.347Z,1.92
2023-05-04T08:19:25.860Z,1.83
2023-05-04T08:21:54.268Z,2.13
2023-05-04T08:24:22.802Z,2.33
2023-05-04T08:27:03.676Z,1.73
2023-05-04T08:29:37.303Z,2.53
2023-05-04T08:32:07.558Z,1.90
2023-05-04T08:34:36.744Z,2.03
2023-05-04T08:37:05.270Z,2.03
2023-05-04T08:39:33.931Z,1.73
2023-05-04T08:42:03.120Z,1.67
2023-05-04T08:44:31.885Z,2.00
2023-05-04T08:47:00.535Z,1.63
2023-05-04T08:49:30.713Z,1.90
2023-05-04T08:52:00.287Z,1.52
2023-05-04T08:54:30.898Z,1.70
2023-05-04T08:56:59.799Z,1.70
2023-05-04T08:59:30.165Z,1.75
2023-05-04T09:02:00.447Z,1.75
2023-05-04T09:04:32.387Z,1.17
2023-05-04T09:07:00.681Z,1.67
2023-05-04T09:09:31.395Z,1.52
2023-05-04T09:11:59.971Z,1.60
2023-05-04T09:14:35.552Z,1.67
2023-05-04T09:17:05.389Z,1.77
2023-05-04T09:19:35.592Z,1.58
2023-05-04T09:22:14.740Z,1.38
2023-05-04T09:24:43.518Z,1.45
2023-05-04T09:27:12.694Z,1.38
2023-05-04T09:29:43.190Z,2.03
2023-05-04T09:32:15.375Z,1.52
2023-05-04T09:34:52.294Z,1.02
2023-05-04T09:37:22.103Z,1.73
2023-05-04T09:39:52.488Z,1.83
2023-05-04T09:42:21.524Z,1.35
2023-05-04T09:45:03.458Z,1.40
2023-05-04T09:47:37.021Z,1.77
2023-05-04T09:50:20.806Z,1.38
2023-05-04T09:52:50.456Z,1.30
2023-05-04T09:55:20.252Z,1.40
2023-05-04T09:57:51.042Z,1.00
2023-05-04T10:00:20.737Z,1.20
2023-05-04T10:02:50.295Z,1.27
2023-05-04T10:05:21.827Z,1.00
2023-05-04T10:07:50.741Z,0.90
2023-05-04T10:10:19.324Z,1.08
2023-05-04T10:12:48.057Z,1.30
2023-05-04T10:15:18.513Z,0.88
2023-05-04T10:18:04.538Z,1.08
2023-05-04T10:20:52.048Z,1.38
2023-05-04T10:23:39.443Z,1.02
2023-05-04T10:26:26.555Z,1.10
2023-05-04T10:29:09.543Z,1.38
2023-05-04T10:31:40.015Z,1.30
2023-05-04T10:34:09.008Z,1.10
2023-05-04T10:36:39.939Z,1.10
2023-05-04T10:39:19.229Z,1.33
2023-05-04T10:42:05.879Z,0.98
2023-05-04T10:44:37.428Z,1.00
2023-05-04T10:47:08.298Z,1.15
2023-05-04T10:49:37.384Z,1.58
2023-05-04T10:52:09.688Z,1.00
2023-05-04T10:54:39.102Z,0.80
2023-05-04T10:57:09.244Z,1.42
2023-05-04T10:59:38.182Z,1.10
2023-05-04T11:02:07.753Z,1.15
2023-05-04T11:04:37.378Z,1.15
2023-05-04T11:07:08.876Z,1.38
2023-05-04T11:09:38.815Z,1.10
2023-05-04T11:12:10.597Z,1.20
2023-05-04T11:14:43.339Z,1.27
2023-05-04T11:17:26.872Z,1.02
2023-05-04T11:19:57.477Z,1.15
2023-05-04T11:22:27.612Z,1.10
2023-05-04T11:24:56.301Z,1.13
2023-05-04T11:27:26.412Z,1.33
2023-05-04T11:29:58.877Z,0.95
2023-05-04T11:32:38.703Z,1.17
2023-05-04T11:35:10.439Z,1.10
2023-05-04T11:37:41.876Z,0.80
2023-05-04T11:40:17.742Z,1.00
2023-05-04T11:42:48.486Z,1.10
2023-05-04T11:45:20.162Z,1.45
2023-05-04T11:47:51.795Z,0.90
2023-05-04T11:50:21.873Z,1.20
2023-05-04T11:52:52.018Z,0.80
2023-05-04T11:55:31.356Z,1.08
2023-05-04T11:58:00.548Z,0.98
2023-05-04T12:00:40.057Z,1.50
2023-05-04T12:03:12.551Z,1.17
2023-05-04T12:05:47.926Z,1.23
2023-05-04T12:08:29.977Z,1.13
2023-05-04T12:11:14.708Z,2.22
2023-05-04T12:13:47.374Z,1.80
2023-05-04T12:16:18.172Z,1.40
2023-05-04T12:18:47.774Z,1.55
2023-05-04T12:21:18.828Z,1.23
2023-05-04T12:23:50.436Z,1.45
2023-05-04T12:26:19.752Z,1.00
2023-05-04T12:28:49.000Z,1.52
2023-05-04T12:31:17.425Z,1.20
2023-05-04T12:33:46.475Z,1.50
2023-05-04T12:36:14.847Z,1.10
2023-05-04T12:38:43.364Z,3.17
2023-05-04T12:41:13.493Z,0.85
2023-05-04T12:43:43.029Z,1.83
2023-05-04T12:46:11.749Z,1.20
2023-05-04T12:48:40.435Z,1.52
2023-05-04T12:51:08.792Z,1.10
2023-05-04T12:53:37.523Z,1.48
2023-05-04T12:56:06.184Z,1.10
2023-05-04T12:58:36.131Z,1.13
2023-05-04T13:01:05.847Z,0.93
2023-05-04T13:03:34.718Z,1.38
2023-05-04T13:06:04.447Z,1.48
2023-05-04T13:08:33.679Z,1.00
2023-05-04T13:11:02.133Z,1.00
2023-05-04T13:13:30.819Z,1.15
2023-05-04T13:16:00.749Z,1.33
2023-05-04T13:18:30.070Z,1.20
2023-05-04T13:20:58.316Z,1.02
2023-05-04T13:23:26.933Z,1.25
2023-05-04T13:25:55.545Z,1.35
2023-05-04T13:28:24.321Z,1.20
2023-05-04T13:30:53.139Z,1.15
2023-05-04T13:33:29.620Z,1.00
2023-05-04T13:35:59.140Z,1.40
2023-05-04T13:38:27.910Z,1.27
2023-05-04T13:40:56.586Z,1.15
2023-05-04T13:43:25.667Z,1.05
2023-05-04T13:45:53.911Z,1.05
2023-05-04T13:48:25.637Z,1.48
2023-05-04T13:50:54.060Z,1.60
2023-05-04T13:53:22.806Z,0.90
2023-05-04T13:55:51.017Z,1.13
2023-05-04T13:58:19.578Z,0.80
2023-05-04T14:00:47.861Z,1.23
2023-05-04T14:03:16.415Z,1.02
2023-05-04T14:05:46.042Z,1.40
2023-05-04T14:08:14.789Z,0.88
2023-05-04T14:10:43.238Z,1.15
2023-05-04T14:13:12.208Z,1.40
2023-05-04T14:15:40.669Z,1.10
2023-05-04T14:18:09.318Z,1.15
2023-05-04T14:20:37.883Z,1.25
2023-05-04T14:23:07.846Z,1.13
2023-05-04T14:25:36.207Z,1.23
2023-05-04T14:28:05.062Z,0.88
2023-05-04T14:30:34.197Z,1.20
2023-05-04T14:33:03.750Z,1.30
2023-05-04T14:35:32.201Z,1.20
2023-05-04T14:38:00.909Z,1.30
2023-05-04T14:40:30.818Z,1.15
2023-05-04T14:43:01.059Z,1.25
2023-05-04T14:45:29.896Z,0.93
2023-05-04T14:47:59.361Z,1.17
2023-05-04T14:50:27.901Z,0.85
2023-05-04T14:52:56.586Z,1.30
2023-05-04T14:55:24.964Z,1.48
2023-05-04T14:57:55.002Z,1.00
2023-05-04T15:00:23.651Z,1.15
2023-05-04T15:02:52.760Z,1.45
2023-05-04T15:05:21.259Z,1.65
2023-05-04T15:07:49.956Z,1.35
2023-05-04T15:10:18.314Z,1.13
2023-05-04T15:12:46.936Z,1.50
2023-05-04T15:15:16.919Z,1.42
2023-05-04T15:17:45.635Z,1.10
2023-05-04T15:20:15.497Z,0.90
2023-05-04T15:22:47.275Z,1.10
2023-05-04T15:25:15.584Z,1.30
2023-05-04T15:27:44.952Z,0.98
2023-05-04T15:30:13.736Z,1.20
2023-05-04T15:32:45.974Z,0.90
2023-05-04T15:35:14.516Z,1.25
2023-05-04T15:37:43.095Z,0.85
2023-05-04T15:40:13.314Z,1.10
2023-05-04T15:42:41.870Z,0.90
2023-05-04T15:45:10.875Z,1.00
2023-05-04T15:47:39.461Z,1.10
2023-05-04T15:50:09.841Z,1.08
2023-05-04T15:52:39.097Z,0.90
2023-05-04T15:55:23.297Z,1.00
2023-05-04T15:57:54.026Z,1.00
2023-05-04T16:00:23.584Z,1.48
2023-05-04T16:02:52.550Z,1.20
2023-05-04T16:05:24.421Z,1.38
2023-05-04T16:07:53.461Z,1.77
2023-05-04T16:10:22.290Z,1.40
2023-05-04T16:12:51.470Z,1.40
2023-05-04T16:15:20.528Z,1.67
2023-05-04T16:17:49.486Z,1.90
2023-05-04T16:20:18.085Z,1.70
2023-05-04T16:22:48.206Z,1.92
2023-05-04T16:25:16.897Z,1.55
2023-05-04T16:27:45.537Z,1.35
2023-05-04T16:30:15.545Z,1.75
2023-05-04T16:32:44.330Z,1.38
2023-05-04T16:35:12.518Z,1.48
2023-05-04T16:37:41.070Z,1.45
2023-05-04T16:40:16.345Z,1.30
2023-05-04T16:42:45.612Z,1.27
2023-05-04T16:45:15.101Z,1.45
2023-05-04T16:47:44.575Z,0.95
2023-05-04T16:50:14.315Z,1.30
2023-05-04T16:52:43.646Z,1.70
2023-05-04T16:55:12.539Z,1.50
2023-05-04T16:57:42.912Z,1.42
2023-05-04T17:00:13.497Z,1.38
2023-05-04T17:02:42.736Z,1.23
2023-05-04T17:05:11.469Z,1.20
2023-05-04T17:07:43.266Z,1.33
2023-05-04T17:10:12.359Z,1.60
2023-05-04T17:12:42.647Z,1.45
2023-05-04T17:15:12.221Z,2.38
2023-05-04T17:17:41.300Z,2.20
2023-05-04T17:20:14.683Z,1.85
2023-05-04T17:22:43.720Z,1.15
2023-05-04T17:25:13.878Z,1.67
2023-05-04T17:27:44.895Z,1.52
2023-05-04T17:30:14.141Z,1.58
2023-05-04T17:32:42.872Z,1.45
2023-05-04T17:35:21.022Z,1.90
2023-05-04T17:37:56.150Z,1.33
2023-05-04T17:40:27.110Z,1.85
2023-05-04T17:42:57.533Z,1.08
2023-05-04T17:45:25.933Z,2.15
2023-05-04T17:47:54.555Z,1.60
2023-05-04T17:50:23.150Z,1.42
2023-05-04T17:52:55.453Z,1.35
2023-05-04T17:55:24.800Z,1.27
2023-05-04T17:57:54.826Z,1.55
2023-05-04T18:00:24.910Z,1.90
2023-05-04T18:02:53.665Z,1.80
2023-05-04T18:05:22.260Z,1.80
2023-05-04T18:07:51.048Z,1.92
2023-05-04T18:10:19.363Z,2.17
2023-05-04T18:12:48.097Z,1.63
2023-05-04T18:15:17.928Z,2.47
2023-05-04T18:17:48.707Z,1.65
2023-05-04T18:20:17.359Z,2.30
2023-05-04T18:22:46.584Z,2.53
2023-05-04T18:25:16.179Z,2.75
2023-05-04T18:27:44.959Z,2.17
2023-05-04T18:30:13.694Z,2.10
2023-05-04T18:32:42.314Z,2.40
2023-05-04T18:35:12.590Z,2.10
2023-05-04T18:37:41.067Z,2.55
2023-05-04T18:40:10.680Z,2.20
2023-05-04T18:42:39.665Z,2.15
2023-05-04T18:45:10.363Z,2.03
2023-05-04T18:47:38.922Z,2.30
2023-05-04T18:50:08.559Z,2.25
2023-05-04T18:52:38.685Z,2.05
2023-05-04T18:55:08.009Z,2.22
2023-05-04T18:57:36.604Z,2.10
2023-05-04T19:00:07.088Z,2.72
2023-05-04T19:02:36.146Z,2.78
2023-05-04T19:05:04.600Z,2.53
2023-05-04T19:07:33.034Z,2.75
2023-05-04T19:10:02.870Z,2.90
2023-05-04T19:12:31.770Z,2.60
2023-05-04T19:15:00.356Z,3.20
2023-05-04T19:17:29.621Z,3.22
2023-05-04T19:19:57.844Z,3.47
2023-05-04T19:22:26.407Z,3.13
2023-05-04T19:24:55.502Z,2.92
2023-05-04T19:27:25.638Z,3.80
2023-05-04T19:29:56.097Z,2.97
2023-05-04T19:32:25.127Z,3.85
2023-05-04T19:34:53.898Z,5.15
2023-05-04T19:37:22.955Z,4.07
2023-05-04T19:39:51.239Z,3.28
2023-05-04T19:42:19.710Z,3.08
2023-05-04T19:44:49.250Z,2.95
2023-05-04T19:47:18.131Z,3.50
2023-05-04T19:49:47.493Z,2.92
2023-05-04T19:52:16.249Z,2.97
2023-05-04T19:54:48.197Z,2.50
2023-05-04T19:57:16.766Z,3.53
2023-05-04T19:59:46.879Z,3.17
2023-05-04T20:02:17.241Z,2.97
2023-05-04T20:04:45.957Z,3.92
2023-05-04T20:07:14.126Z,2.38
2023-05-04T20:09:42.704Z,2.85
2023-05-04T20:12:11.289Z,2.90
2023-05-04T20:14:41.187Z,2.35
2023-05-04T20:17:09.516Z,2.28
2023-05-04T20:19:40.815Z,3.22
2023-05-04T20:22:09.006Z,3.25
2023-05-04T20:24:37.560Z,3.63
2023-05-04T20:27:05.876Z,3.55
2023-05-04T20:29:34.832Z,2.80
2023-05-04T20:32:05.181Z,4.43
2023-05-04T20:34:33.984Z,2.83
2023-05-04T20:37:03.543Z,2.55
2023-05-04T20:39:32.568Z,2.90
2023-05-04T20:42:01.000Z,2.20
2023-05-04T20:44:32.164Z,2.50
2023-05-04T20:47:00.447Z,2.20
2023-05-04T20:49:28.962Z,2.35
2023-05-04T20:51:57.384Z,2.25
2023-05-04T20:54:27.815Z,1.98
2023-05-04T20:56:56.047Z,1.63
2023-05-04T20:59:24.511Z,1.83
2023-05-04T21:01:52.778Z,1.95
2023-05-04T21:04:21.593Z,1.98
2023-05-04T21:06:50.145Z,3.00
2023-05-04T21:09:18.786Z,2.65
2023-05-04T21:11:48.539Z,3.30
2023-05-04T21:14:17.039Z,2.80
2023-05-04T21:16:45.281Z,3.17
2023-05-04T21:19:13.896Z,2.58
2023-05-04T21:21:42.220Z,2.20
2023-05-04T21:24:14.117Z,2.47
2023-05-04T21:26:42.475Z,2.95
2023-05-04T21:29:15.184Z,2.28
2023-05-04T21:31:43.943Z,2.45
2023-05-04T21:34:12.216Z,2.50
2023-05-04T21:36:41.668Z,2.47
2023-05-04T21:39:10.013Z,2.83
2023-05-04T21:41:39.301Z,5.80
2023-05-04T21:44:07.609Z,3.80
2023-05-04T21:46:37.742Z,2.72
2023-05-04T21:49:05.996Z,3.42
2023-05-04T21:51:34.524Z,3.08
2023-05-04T21:54:03.131Z,6.70
2023-05-04T21:56:31.710Z,3.78
2023-05-04T21:59:00.031Z,3.25
2023-05-04T22:01:28.796Z,3.10
2023-05-04T22:03:58.523Z,2.33
2023-05-04T22:06:27.216Z,3.33
2023-05-04T22:08:55.591Z,3.20
2023-05-04T22:11:24.093Z,3.63
2023-05-04T22:13:52.560Z,3.00
2023-05-04T22:16:21.147Z,3.35
2023-05-04T22:18:49.599Z,3.00
2023-05-04T22:21:19.585Z,3.05
2023-05-04T22:23:47.815Z,2.17
2023-05-04T22:26:16.296Z,2.50
2023-05-04T22:28:44.536Z,2.65
2023-05-04T22:31:13.172Z,2.38
2023-05-04T22:33:41.590Z,2.70
2023-05-04T22:36:10.991Z,3.42
2023-05-04T22:38:40.596Z,6.53
2023-05-04T22:41:09.079Z,4.57
2023-05-04T22:43:37.265Z,4.70
2023-05-04T22:46:06.190Z,23.85
2023-05-04T22:48:34.510Z,12.52
2023-05-04T22:51:03.915Z,8.45
2023-05-04T22:53:32.140Z,5.25
2023-05-04T22:56:02.019Z,5.63
2023-05-04T22:58:30.257Z,7.07
2023-05-04T23:00:58.782Z,4.70
2023-05-04T23:03:27.041Z,4.85
2023-05-04T23:05:58.961Z,4.53
2023-05-04T23:08:27.498Z,5.15
2023-05-04T23:10:56.343Z,4.57
2023-05-04T23:13:26.118Z,3.72
2023-05-04T23:15:54.688Z,3.63
2023-05-04T23:18:22.956Z,3.15
2023-05-04T23:20:51.497Z,4.03
2023-05-04T23:23:19.889Z,2.60
2023-05-04T23:25:48.393Z,3.58
2023-05-04T23:28:16.588Z,2.80
2023-05-04T23:30:46.443Z,2.35
2023-05-04T23:33:14.624Z,2.63
2023-05-04T23:35:43.154Z,2.50
2023-05-04T23:38:11.673Z,2.75
2023-05-04T23:40:40.157Z,3.05
2023-05-04T23:43:08.411Z,3.10
2023-05-04T23:45:37.124Z,2.40
2023-05-04T23:48:07.121Z,2.70
2023-05-04T23:50:35.611Z,2.40
2023-05-04T23:53:03.846Z,2.72
2023-05-04T23:55:32.444Z,3.50
2023-05-04T23:58:01.223Z,2.22
